createdAt,value
2022-08-25T00:00:55.184Z,0
2022-08-25T00:01:56.139Z,0
2022-08-25T00:02:57.206Z,0
2022-08-25T00:03:58.213Z,0
2022-08-25T00:04:59.202Z,0
2022-08-25T00:06:00.184Z,0
2022-08-25T00:07:03.230Z,0
2022-08-25T00:08:02.291Z,0
2022-08-25T00:09:03.166Z,0
2022-08-25T00:10:04.193Z,0
2022-08-25T00:11:05.153Z,0
2022-08-25T00:12:07.266Z,0
2022-08-25T00:13:09.190Z,0
2022-08-25T00:14:10.168Z,0
2022-08-25T00:15:11.199Z,0
2022-08-25T00:16:12.256Z,0
2022-08-25T00:17:13.167Z,0
2022-08-25T00:18:19.604Z,0
2022-08-25T00:19:15.185Z,0
2022-08-25T00:20:16.243Z,0
2022-08-25T00:21:17.204Z,0
2022-08-25T00:22:18.181Z,0
2022-08-25T00:23:19.242Z,0
2022-08-25T00:24:20.194Z,0
2022-08-25T00:25:21.193Z,0
2022-08-25T00:26:22.182Z,0
2022-08-25T00:27:23.186Z,0
2022-08-25T00:28:24.217Z,0
2022-08-25T00:29:25.190Z,0
2022-08-25T00:30:26.210Z,0
2022-08-25T00:31:37.487Z,0
2022-08-25T00:32:28.298Z,0
2022-08-25T00:33:29.211Z,0
2022-08-25T00:34:30.195Z,0
2022-08-25T00:35:31.203Z,0
2022-08-25T00:36:32.206Z,0
2022-08-25T00:37:33.214Z,0
2022-08-25T00:38:34.281Z,0
2022-08-25T00:39:35.217Z,0
2022-08-25T00:40:36.212Z,0
2022-08-25T00:41:37.205Z,0
2022-08-25T00:42:38.201Z,0
2022-08-25T00:43:39.240Z,0
2022-08-25T00:44:40.228Z,0
2022-08-25T00:45:41.253Z,0
2022-08-25T00:46:42.356Z,0
2022-08-25T00:47:43.206Z,0
2022-08-25T00:48:44.228Z,0
2022-08-25T00:49:45.221Z,0.22
2022-08-25T00:50:47.054Z,0
2022-08-25T00:51:48.258Z,0.37
2022-08-25T00:52:49.223Z,0.19
2022-08-25T00:53:50.227Z,0
2022-08-25T00:54:51.218Z,0.18
2022-08-25T00:55:52.242Z,0.17
2022-08-25T00:56:53.274Z,0
2022-08-25T00:57:54.244Z,0
2022-08-25T00:58:55.247Z,0
2022-08-25T00:59:56.249Z,0
2022-08-25T01:00:57.277Z,0
2022-08-25T01:01:58.305Z,0
2022-08-25T01:02:59.326Z,0
2022-08-25T01:04:00.248Z,0.25
2022-08-25T01:05:01.425Z,0.32
2022-08-25T01:06:03.251Z,0.16
2022-08-25T01:07:04.273Z,0.14
2022-08-25T01:08:06.609Z,0.21
2022-08-25T01:09:06.288Z,0.29
2022-08-25T01:10:07.285Z,0.29
2022-08-25T01:11:08.258Z,0.14
2022-08-25T01:12:09.284Z,0.08
2022-08-25T01:13:10.416Z,0
2022-08-25T01:14:12.309Z,0
2022-08-25T01:15:13.298Z,0
2022-08-25T01:16:14.375Z,0
2022-08-25T01:17:15.268Z,0
2022-08-25T01:18:16.281Z,0
2022-08-25T01:19:17.337Z,0
2022-08-25T01:20:18.285Z,0
2022-08-25T01:21:19.277Z,0
2022-08-25T01:22:20.283Z,0
2022-08-25T01:23:21.322Z,0
2022-08-25T01:24:22.311Z,0
2022-08-25T01:25:23.282Z,0
2022-08-25T01:26:28.335Z,0
2022-08-25T01:27:25.332Z,0
2022-08-25T01:28:26.515Z,0
2022-08-25T01:29:28.318Z,0
2022-08-25T01:30:29.282Z,0
2022-08-25T01:31:30.378Z,0
2022-08-25T01:32:31.311Z,0
2022-08-25T01:33:32.311Z,0
2022-08-25T01:34:33.358Z,0
2022-08-25T01:35:34.317Z,0
2022-08-25T01:36:35.296Z,0
2022-08-25T01:37:36.341Z,0
2022-08-25T01:38:37.316Z,0
2022-08-25T01:39:38.342Z,0
2022-08-25T01:40:39.347Z,0
2022-08-25T01:41:40.297Z,0
2022-08-25T01:42:41.406Z,0
2022-08-25T01:43:42.357Z,0
2022-08-25T01:44:43.317Z,0
2022-08-25T01:45:44.383Z,0
2022-08-25T01:46:45.321Z,0.32
2022-08-25T01:47:46.358Z,0.32
2022-08-25T01:48:47.333Z,0.26
2022-08-25T01:49:48.497Z,0.33
2022-08-25T01:50:50.319Z,0.25
2022-08-25T01:51:51.338Z,0.25
2022-08-25T01:52:52.353Z,0.11
2022-08-25T01:53:53.338Z,0.19
2022-08-25T01:54:54.392Z,0
2022-08-25T01:55:55.329Z,0.16
2022-08-25T01:56:56.352Z,0.05
2022-08-25T01:57:57.359Z,0.35
2022-08-25T01:58:58.342Z,0.31
2022-08-25T01:59:59.369Z,0.35
2022-08-25T02:01:00.428Z,0.39
2022-08-25T02:02:01.388Z,0.18
2022-08-25T02:03:02.388Z,0.18
2022-08-25T02:04:03.385Z,0
2022-08-25T02:05:04.412Z,0
2022-08-25T02:06:05.350Z,0
2022-08-25T02:07:06.363Z,0
2022-08-25T02:08:07.372Z,0
2022-08-25T02:09:08.397Z,0
2022-08-25T02:10:09.356Z,0
2022-08-25T02:11:10.409Z,0
2022-08-25T02:12:11.363Z,0
2022-08-25T02:13:12.370Z,0
2022-08-25T02:14:13.363Z,0
2022-08-25T02:15:14.397Z,0
2022-08-25T02:16:15.414Z,0
2022-08-25T02:17:16.396Z,0.25
2022-08-25T02:18:17.385Z,0.39
2022-08-25T02:19:18.390Z,0.5
2022-08-25T02:20:19.423Z,0.33
2022-08-25T02:21:20.373Z,0.32
2022-08-25T02:22:21.387Z,0.31
2022-08-25T02:23:22.379Z,0.27
2022-08-25T02:24:23.387Z,0.41
2022-08-25T02:25:24.425Z,0.52
2022-08-25T02:26:25.390Z,0.42
2022-08-25T02:27:26.385Z,0.46
2022-08-25T02:28:27.413Z,0.36
2022-08-25T02:29:28.406Z,0.37
2022-08-25T02:30:29.453Z,0.5
2022-08-25T02:31:30.407Z,0.4
2022-08-25T02:32:31.397Z,0.24
2022-08-25T02:33:32.443Z,0.17
2022-08-25T02:34:33.413Z,0.19
2022-08-25T02:35:34.407Z,0.09
2022-08-25T02:36:35.436Z,0.5
2022-08-25T02:37:36.404Z,0.35
2022-08-25T02:38:37.435Z,0.44
2022-08-25T02:39:38.401Z,0.28
2022-08-25T02:40:39.430Z,0.22
2022-08-25T02:41:40.405Z,0.4
2022-08-25T02:42:42.595Z,0.16
2022-08-25T02:43:42.441Z,0.44
2022-08-25T02:44:43.404Z,0.49
2022-08-25T02:45:44.509Z,0.64
2022-08-25T02:46:45.415Z,0.57
2022-08-25T02:47:46.428Z,0.31
2022-08-25T02:48:47.431Z,0.33
2022-08-25T02:49:48.426Z,0
2022-08-25T02:50:49.491Z,0
2022-08-25T02:51:50.425Z,0
2022-08-25T02:52:51.433Z,0
2022-08-25T02:53:52.428Z,0
2022-08-25T02:54:53.434Z,0
2022-08-25T02:55:54.780Z,0
2022-08-25T02:56:56.443Z,0
2022-08-25T02:57:57.432Z,0
2022-08-25T02:58:58.441Z,0
2022-08-25T02:59:59.440Z,0
2022-08-25T03:01:00.539Z,0
2022-08-25T03:02:01.477Z,0
2022-08-25T03:03:02.443Z,0
2022-08-25T03:04:03.483Z,0
2022-08-25T03:05:04.471Z,0
2022-08-25T03:06:05.488Z,0.26
2022-08-25T03:07:06.462Z,0.45
2022-08-25T03:08:07.460Z,0.63
2022-08-25T03:09:08.444Z,0.66
2022-08-25T03:10:09.474Z,0.74
2022-08-25T03:11:10.514Z,0.38
2022-08-25T03:12:11.456Z,0
2022-08-25T03:13:12.502Z,0
2022-08-25T03:14:13.467Z,0
2022-08-25T03:15:14.508Z,0
2022-08-25T03:16:15.539Z,0
2022-08-25T03:17:16.476Z,0.22
2022-08-25T03:18:17.477Z,0.22
2022-08-25T03:19:18.473Z,0
2022-08-25T03:20:19.475Z,0
2022-08-25T03:21:20.509Z,0
2022-08-25T03:22:21.490Z,0
2022-08-25T03:23:22.510Z,0
2022-08-25T03:24:23.473Z,0
2022-08-25T03:25:24.481Z,0
2022-08-25T03:26:25.526Z,0
2022-08-25T03:27:26.486Z,0
2022-08-25T03:28:29.869Z,0
2022-08-25T03:29:28.497Z,0
2022-08-25T03:30:29.504Z,0
2022-08-25T03:31:30.526Z,0
2022-08-25T03:32:31.515Z,0
2022-08-25T03:33:32.549Z,0
2022-08-25T03:34:33.497Z,0
2022-08-25T03:35:34.492Z,0
2022-08-25T03:36:35.512Z,0
2022-08-25T03:37:36.501Z,0
2022-08-25T03:38:37.543Z,0
2022-08-25T03:39:38.509Z,0
2022-08-25T03:40:39.518Z,0
2022-08-25T03:41:40.584Z,0
2022-08-25T03:42:44.827Z,0
2022-08-25T03:43:42.506Z,0
2022-08-25T03:44:43.521Z,0
2022-08-25T03:45:44.638Z,0
2022-08-25T03:46:45.606Z,0
2022-08-25T03:47:46.531Z,0
2022-08-25T03:48:47.522Z,0.18
2022-08-25T03:49:48.518Z,0.21
2022-08-25T03:50:50.801Z,0
2022-08-25T03:51:50.599Z,0
2022-08-25T03:52:51.527Z,0
2022-08-25T03:53:52.522Z,0
2022-08-25T03:54:53.535Z,0
2022-08-25T03:55:54.540Z,0
2022-08-25T03:56:55.563Z,0
2022-08-25T03:57:56.567Z,0
2022-08-25T03:58:57.540Z,0
2022-08-25T03:59:58.532Z,0
2022-08-25T04:00:59.558Z,0
2022-08-25T04:02:00.625Z,0
2022-08-25T04:03:01.601Z,0
2022-08-25T04:04:02.577Z,0
2022-08-25T04:05:03.579Z,0.12
2022-08-25T04:06:04.553Z,0
2022-08-25T04:07:05.598Z,0
2022-08-25T04:08:06.754Z,0
2022-08-25T04:09:07.548Z,0
2022-08-25T04:10:08.557Z,0
2022-08-25T04:11:09.558Z,0
2022-08-25T04:12:10.614Z,0
2022-08-25T04:13:11.548Z,0
2022-08-25T04:14:13.156Z,0
2022-08-25T04:15:13.637Z,0
2022-08-25T04:16:14.642Z,0.2
2022-08-25T04:17:15.625Z,0
2022-08-25T04:18:16.569Z,0
2022-08-25T04:19:17.601Z,0
2022-08-25T04:20:18.572Z,0
2022-08-25T04:21:19.588Z,0
2022-08-25T04:22:20.615Z,0
2022-08-25T04:23:21.831Z,0
2022-08-25T04:24:23.602Z,0
2022-08-25T04:25:24.576Z,0
2022-08-25T04:26:25.591Z,0
2022-08-25T04:27:26.583Z,0
2022-08-25T04:28:27.603Z,0
2022-08-25T04:29:28.617Z,0
2022-08-25T04:30:29.589Z,0
2022-08-25T04:31:30.726Z,0
2022-08-25T04:32:31.626Z,0.26
2022-08-25T04:33:32.599Z,0
2022-08-25T04:34:33.618Z,0
2022-08-25T04:35:34.602Z,0
2022-08-25T04:36:35.611Z,0
2022-08-25T04:37:36.642Z,0
2022-08-25T04:38:37.607Z,0
2022-08-25T04:39:38.614Z,0
2022-08-25T04:40:39.606Z,0
2022-08-25T04:41:40.617Z,0
2022-08-25T04:42:41.642Z,0
2022-08-25T04:43:42.603Z,0
2022-08-25T04:44:43.601Z,0
2022-08-25T04:45:44.637Z,0
2022-08-25T04:46:45.629Z,0
2022-08-25T04:47:46.685Z,0
2022-08-25T04:48:47.625Z,0
2022-08-25T04:49:53.370Z,0
2022-08-25T04:50:55.630Z,0
2022-08-25T04:51:56.617Z,0
2022-08-25T04:52:57.636Z,0
2022-08-25T04:53:58.635Z,0
2022-08-25T04:54:59.696Z,0.22
2022-08-25T04:56:03.782Z,0.16
2022-08-25T04:57:01.779Z,0.11
2022-08-25T04:58:03.732Z,0
2022-08-25T04:59:04.648Z,0
2022-08-25T05:00:05.723Z,0
2022-08-25T05:01:06.722Z,0
2022-08-25T05:02:07.654Z,0
2022-08-25T05:03:08.674Z,0
2022-08-25T05:04:14.553Z,0
2022-08-25T05:05:10.678Z,0
2022-08-25T05:06:15.351Z,0
2022-08-25T05:07:12.657Z,0
2022-08-25T05:08:13.681Z,0
2022-08-25T05:09:14.665Z,0
2022-08-25T05:10:15.653Z,0
2022-08-25T05:11:16.702Z,0
2022-08-25T05:12:17.657Z,0
2022-08-25T05:13:18.703Z,0
2022-08-25T05:14:19.660Z,0
2022-08-25T05:15:20.670Z,0
2022-08-25T05:16:21.693Z,0
2022-08-25T05:17:22.712Z,0
2022-08-25T05:18:23.728Z,0
2022-08-25T05:19:24.726Z,0
2022-08-25T05:20:25.674Z,0
2022-08-25T05:21:26.697Z,0
2022-08-25T05:22:27.683Z,0
2022-08-25T05:23:28.793Z,0
2022-08-25T05:24:30.690Z,0
2022-08-25T05:25:31.721Z,0
2022-08-25T05:26:32.720Z,0.24
2022-08-25T05:27:33.688Z,0.18
2022-08-25T05:28:34.721Z,0.2
2022-08-25T05:29:35.690Z,0
2022-08-25T05:30:36.717Z,0
2022-08-25T05:31:41.886Z,0
2022-08-25T05:32:38.728Z,0
2022-08-25T05:33:39.709Z,0
2022-08-25T05:34:40.731Z,0
2022-08-25T05:35:41.702Z,0
2022-08-25T05:36:42.703Z,0
2022-08-25T05:37:43.701Z,0
2022-08-25T05:38:44.703Z,0
2022-08-25T05:39:45.806Z,0
2022-08-25T05:40:46.722Z,0
2022-08-25T05:41:47.718Z,0
2022-08-25T05:42:48.708Z,0
2022-08-25T05:43:49.744Z,0
2022-08-25T05:44:50.771Z,0
2022-08-25T05:45:51.786Z,0
2022-08-25T05:46:52.721Z,0
2022-08-25T05:47:53.768Z,0
2022-08-25T05:48:54.785Z,0
2022-08-25T05:49:55.762Z,0
2022-08-25T05:50:56.744Z,0
2022-08-25T05:51:57.730Z,0
2022-08-25T05:52:58.770Z,0
2022-08-25T05:53:59.736Z,0.19
2022-08-25T05:55:00.774Z,0.38
2022-08-25T05:56:01.956Z,0.13
2022-08-25T05:57:03.730Z,0.43
2022-08-25T05:58:04.963Z,0.18
2022-08-25T05:59:09.190Z,0.2
2022-08-25T06:00:06.840Z,0
2022-08-25T06:01:07.866Z,0
2022-08-25T06:02:08.753Z,0
2022-08-25T06:03:09.805Z,0
2022-08-25T06:04:10.787Z,0
2022-08-25T06:05:11.833Z,0
2022-08-25T06:06:12.752Z,0.34
2022-08-25T06:07:13.807Z,0.12
2022-08-25T06:08:14.750Z,0
2022-08-25T06:09:15.757Z,0.22
2022-08-25T06:10:16.801Z,0
2022-08-25T06:11:17.775Z,0.16
2022-08-25T06:12:18.774Z,0
2022-08-25T06:13:20.759Z,0
2022-08-25T06:14:20.825Z,0
2022-08-25T06:15:21.836Z,0
2022-08-25T06:16:22.809Z,0
2022-08-25T06:17:23.922Z,0
2022-08-25T06:18:25.772Z,0
2022-08-25T06:19:26.845Z,0.31
2022-08-25T06:20:27.962Z,0
2022-08-25T06:21:29.797Z,0.3
2022-08-25T06:22:30.807Z,0.26
2022-08-25T06:23:31.802Z,0
2022-08-25T06:24:32.815Z,0
2022-08-25T06:25:33.807Z,0
2022-08-25T06:26:35.496Z,0.31
2022-08-25T06:27:37.313Z,0.09
2022-08-25T06:28:39.704Z,0.33
2022-08-25T06:29:41.952Z,0.35
2022-08-25T06:30:42.859Z,0.31
2022-08-25T06:31:45.264Z,0.3
2022-08-25T06:32:47.178Z,0.2
2022-08-25T06:33:48.808Z,0.33
2022-08-25T06:34:49.812Z,0.24
2022-08-25T06:35:50.855Z,0.2
2022-08-25T06:36:52.816Z,0.4
2022-08-25T06:37:53.807Z,0.33
2022-08-25T06:38:54.826Z,0.22
2022-08-25T06:39:56.895Z,0.57
2022-08-25T06:40:58.091Z,0.44
2022-08-25T06:42:00.860Z,0.39
2022-08-25T06:43:01.839Z,0.32
2022-08-25T06:44:04.828Z,0.4
2022-08-25T06:45:06.165Z,0.35
2022-08-25T06:46:08.390Z,0.08
2022-08-25T06:47:10.911Z,0
2022-08-25T06:48:11.840Z,0
2022-08-25T06:49:14.229Z,0
2022-08-25T06:50:16.200Z,0
2022-08-25T06:51:17.895Z,0
2022-08-25T06:52:18.836Z,0.62
2022-08-25T06:53:19.864Z,0.62
2022-08-25T06:54:22.154Z,0.33
2022-08-25T06:55:24.041Z,0.11
2022-08-25T06:56:27.145Z,0.19
2022-08-25T06:57:30.021Z,0.49
2022-08-25T06:58:31.883Z,0.26
2022-08-25T06:59:32.840Z,0.23
2022-08-25T07:00:35.766Z,0.27
2022-08-25T07:01:38.481Z,0.2
2022-08-25T07:02:39.899Z,0.28
2022-08-25T07:03:40.865Z,0.24
2022-08-25T07:04:43.598Z,0.38
2022-08-25T07:05:45.212Z,0.25
2022-08-25T07:06:47.115Z,0.14
2022-08-25T07:07:48.846Z,0.15
2022-08-25T07:08:51.229Z,0.12
2022-08-25T07:09:52.886Z,0.25
2022-08-25T07:10:54.872Z,0.14
2022-08-25T07:11:55.951Z,0.31
2022-08-25T07:12:56.871Z,0.99
2022-08-25T07:13:58.880Z,0.97
2022-08-25T07:15:10.297Z,0.56
2022-08-25T07:16:00.926Z,0.57
2022-08-25T07:17:02.401Z,0.18
2022-08-25T07:18:05.889Z,0.32
2022-08-25T07:19:06.669Z,0.18
2022-08-25T07:20:08.899Z,0.09
2022-08-25T07:21:09.886Z,0.48
2022-08-25T07:22:11.540Z,0.28
2022-08-25T07:23:12.895Z,0.11
2022-08-25T07:24:14.264Z,0.18
2022-08-25T07:25:18.270Z,0.21
2022-08-25T07:26:36.580Z,0.43
2022-08-25T07:27:21.885Z,0.87
2022-08-25T07:28:23.905Z,0.72
2022-08-25T07:29:26.615Z,0.62
2022-08-25T07:30:25.910Z,0.59
2022-08-25T07:31:29.422Z,0.36
2022-08-25T07:32:30.358Z,0.35
2022-08-25T07:33:32.632Z,0.26
2022-08-25T07:34:33.927Z,1.17
2022-08-25T07:35:36.482Z,0.73
2022-08-25T07:36:37.118Z,0.81
2022-08-25T07:37:48.734Z,0.64
2022-08-25T07:38:40.945Z,1.11
2022-08-25T07:39:41.940Z,1.16
2022-08-25T07:40:43.677Z,0.79
2022-08-25T07:41:45.911Z,0.16
2022-08-25T07:42:46.916Z,0.33
2022-08-25T07:43:48.587Z,0.56
2022-08-25T07:44:49.956Z,0.64
2022-08-25T07:45:50.972Z,0.68
2022-08-25T07:46:53.632Z,0.62
2022-08-25T07:47:55.041Z,0.32
2022-08-25T07:48:56.929Z,0.28
2022-08-25T07:49:57.923Z,0
2022-08-25T07:50:59.002Z,0.69
2022-08-25T07:52:03.820Z,0.55
2022-08-25T07:53:01.934Z,0.95
2022-08-25T07:54:03.047Z,0.96
2022-08-25T07:55:05.138Z,0.59
2022-08-25T07:56:06.968Z,0.59
2022-08-25T07:57:08.567Z,0.55
2022-08-25T07:58:13.687Z,0.91
2022-08-25T07:59:15.031Z,0.49
2022-08-25T08:00:15.448Z,0.19
2022-08-25T08:01:17.032Z,1.12
2022-08-25T08:02:19.303Z,0.43
2022-08-25T08:03:35.359Z,0.96
2022-08-25T08:04:21.044Z,0.74
2022-08-25T08:05:23.802Z,0.33
2022-08-25T08:06:23.994Z,0.38
2022-08-25T08:07:25.887Z,0.22
2022-08-25T08:08:25.355Z,0.4
2022-08-25T08:09:26.425Z,0.09
2022-08-25T08:11:03.044Z,0.3
2022-08-25T08:11:28.376Z,0.38
2022-08-25T08:12:29.416Z,0.18
2022-08-25T08:13:30.401Z,0.2
2022-08-25T08:14:31.363Z,0
2022-08-25T08:15:32.371Z,0.19
2022-08-25T08:16:33.557Z,0.29
2022-08-25T08:17:34.717Z,0.3
2022-08-25T08:18:35.371Z,0.23
2022-08-25T08:19:36.979Z,0.34
2022-08-25T08:20:41.170Z,0.33
2022-08-25T08:21:39.026Z,0.4
2022-08-25T08:22:40.005Z,0.48
2022-08-25T08:23:40.989Z,0.2
2022-08-25T08:24:44.480Z,0.28
2022-08-25T08:25:42.993Z,0.44
2022-08-25T08:26:57.532Z,0.49
2022-08-25T08:27:45.037Z,0.25
2022-08-25T08:28:52.006Z,0.36
2022-08-25T08:29:46.998Z,0.42
2022-08-25T08:30:53.206Z,0.29
2022-08-25T08:31:49.351Z,0.36
2022-08-25T08:33:08.998Z,0.3
2022-08-25T08:33:52.017Z,0
2022-08-25T08:34:53.030Z,0.43
2022-08-25T08:35:54.067Z,0.36
2022-08-25T08:36:55.083Z,0.42
2022-08-25T08:37:56.113Z,0.39
2022-08-25T08:38:57.051Z,0.35
2022-08-25T08:39:58.044Z,0.07
2022-08-25T08:40:59.036Z,0.32
2022-08-25T08:42:11.771Z,0.49
2022-08-25T08:43:01.061Z,0.37
2022-08-25T08:44:02.245Z,0.2
2022-08-25T08:45:04.083Z,0.08
2022-08-25T08:46:05.332Z,0
2022-08-25T08:47:08.856Z,0.14
2022-08-25T08:48:08.115Z,0.18
2022-08-25T08:49:09.049Z,0
2022-08-25T08:50:10.086Z,0.56
2022-08-25T08:51:11.097Z,0.17
2022-08-25T08:52:12.079Z,0.39
2022-08-25T08:53:13.083Z,0
2022-08-25T08:54:15.250Z,0.28
2022-08-25T08:55:15.101Z,0.39
2022-08-25T08:56:16.066Z,0.55
2022-08-25T08:57:17.331Z,0.6
2022-08-25T08:58:18.069Z,0.31
2022-08-25T08:59:19.131Z,0.22
2022-08-25T09:00:20.061Z,0.37
2022-08-25T09:01:21.103Z,0.26
2022-08-25T09:02:30.750Z,0.09
2022-08-25T09:03:23.142Z,0.3
2022-08-25T09:04:24.259Z,0.25
2022-08-25T09:05:26.122Z,0.73
2022-08-25T09:06:27.072Z,0.73
2022-08-25T09:07:28.259Z,0.36
2022-08-25T09:08:29.152Z,0.22
2022-08-25T09:09:30.137Z,0.15
2022-08-25T09:10:31.100Z,0.15
2022-08-25T09:11:32.101Z,0.22
2022-08-25T09:12:33.406Z,0.07
2022-08-25T09:13:34.102Z,0
2022-08-25T09:14:35.129Z,0.32
2022-08-25T09:15:41.202Z,0.29
2022-08-25T09:16:38.179Z,0.14
2022-08-25T09:17:39.104Z,0
2022-08-25T09:18:41.176Z,0
2022-08-25T09:19:41.854Z,0.09
2022-08-25T09:20:41.475Z,0
2022-08-25T09:21:42.489Z,0
2022-08-25T09:22:43.498Z,0.18
2022-08-25T09:23:44.482Z,0.31
2022-08-25T09:24:45.725Z,0.11
2022-08-25T09:25:52.807Z,0
2022-08-25T09:26:47.491Z,0.21
2022-08-25T09:27:48.535Z,0.45
2022-08-25T09:28:49.596Z,0.44
2022-08-25T09:29:50.499Z,0.18
2022-08-25T09:30:51.544Z,0.16
2022-08-25T09:31:52.494Z,0.38
2022-08-25T09:32:53.542Z,0.24
2022-08-25T09:33:54.514Z,0.27
2022-08-25T09:34:55.558Z,0.31
2022-08-25T09:35:57.401Z,0.15
2022-08-25T09:36:57.538Z,0.28
2022-08-25T09:37:58.574Z,0
2022-08-25T09:38:59.507Z,0.05
2022-08-25T09:40:00.639Z,0.1
2022-08-25T09:41:01.599Z,0.26
2022-08-25T09:42:02.632Z,0.73
2022-08-25T09:43:03.538Z,0.53
2022-08-25T09:44:04.552Z,0.64
2022-08-25T09:45:05.587Z,0.21
2022-08-25T09:46:06.618Z,0.16
2022-08-25T09:47:08.225Z,0.34
2022-08-25T09:48:08.546Z,0.39
2022-08-25T09:49:09.608Z,0.19
2022-08-25T09:50:10.585Z,0.33
2022-08-25T09:51:11.735Z,0.17
2022-08-25T09:52:12.729Z,0.83
2022-08-25T09:53:13.603Z,0.7
2022-08-25T09:54:14.564Z,1.1
2022-08-25T09:55:15.569Z,1.15
2022-08-25T09:56:16.587Z,0.64
2022-08-25T09:57:17.590Z,0.49
2022-08-25T09:58:18.559Z,0.4
2022-08-25T09:59:19.575Z,0.73
2022-08-25T10:00:20.598Z,0.31
2022-08-25T10:01:22.353Z,0.56
2022-08-25T10:02:22.572Z,0.33
2022-08-25T10:03:24.716Z,1.16
2022-08-25T10:04:24.580Z,0.94
2022-08-25T10:05:25.670Z,0.44
2022-08-25T10:06:26.573Z,1
2022-08-25T10:07:27.598Z,0.78
2022-08-25T10:08:28.577Z,1.42
2022-08-25T10:09:29.561Z,0.81
2022-08-25T10:10:32.316Z,0.25
2022-08-25T10:11:31.578Z,0.58
2022-08-25T10:12:32.586Z,0.26
2022-08-25T10:13:33.599Z,0.25
2022-08-25T10:14:34.593Z,0.47
2022-08-25T10:15:35.720Z,0.55
2022-08-25T10:16:36.770Z,0.89
2022-08-25T10:17:37.635Z,1.02
2022-08-25T10:18:38.765Z,0.59
2022-08-25T10:19:39.634Z,1.1
2022-08-25T10:20:44.445Z,1.53
2022-08-25T10:21:41.608Z,1.23
2022-08-25T10:22:42.630Z,0.55
2022-08-25T10:23:43.622Z,0.34
2022-08-25T10:24:44.652Z,0.31
2022-08-25T10:25:58.085Z,0.2
2022-08-25T10:26:46.637Z,0.13
2022-08-25T10:27:47.600Z,0.09
2022-08-25T10:28:48.602Z,0.2
2022-08-25T10:29:49.617Z,0.11
2022-08-25T10:30:50.776Z,0.55
2022-08-25T10:31:51.635Z,1.34
2022-08-25T10:32:52.633Z,1.2
2022-08-25T10:33:53.612Z,0.41
2022-08-25T10:34:54.615Z,0.47
2022-08-25T10:35:55.677Z,0.78
2022-08-25T10:36:56.629Z,0.6
2022-08-25T10:37:57.644Z,0.55
2022-08-25T10:38:58.641Z,0.46
2022-08-25T10:39:59.809Z,0.16
2022-08-25T10:41:00.699Z,0.62
2022-08-25T10:42:01.640Z,1.34
2022-08-25T10:43:02.746Z,0.49
2022-08-25T10:44:03.680Z,0.32
2022-08-25T10:45:04.761Z,0.41
2022-08-25T10:46:05.892Z,0.21
2022-08-25T10:47:06.687Z,0.18
2022-08-25T10:48:07.654Z,0.16
2022-08-25T10:49:08.644Z,0.35
2022-08-25T10:50:09.680Z,0.31
2022-08-25T10:51:13.575Z,0.44
2022-08-25T10:52:11.705Z,0.18
2022-08-25T10:53:12.670Z,0.65
2022-08-25T10:54:13.665Z,0.43
2022-08-25T10:55:14.753Z,0.76
2022-08-25T10:56:15.783Z,0.95
2022-08-25T10:57:16.704Z,0.41
2022-08-25T10:58:17.889Z,0.92
2022-08-25T10:59:18.733Z,0.73
2022-08-25T11:00:20.576Z,0.78
2022-08-25T11:01:28.147Z,0.64
2022-08-25T11:02:23.354Z,0.85
2022-08-25T11:03:25.426Z,0.92
2022-08-25T11:04:25.230Z,1.12
2022-08-25T11:05:25.826Z,1.1
2022-08-25T11:06:26.703Z,0.96
2022-08-25T11:07:27.699Z,0.67
2022-08-25T11:08:28.955Z,0.3
2022-08-25T11:09:29.698Z,0
2022-08-25T11:10:30.675Z,0.31
2022-08-25T11:11:31.702Z,0.65
2022-08-25T11:12:32.841Z,0.3
2022-08-25T11:13:33.740Z,0.59
2022-08-25T11:14:34.898Z,0.77
2022-08-25T11:15:35.758Z,0.28
2022-08-25T11:16:37.104Z,0.2
2022-08-25T11:17:37.703Z,0.49
2022-08-25T11:18:38.768Z,0.39
2022-08-25T11:19:39.745Z,0.08
2022-08-25T11:20:40.828Z,0.57
2022-08-25T11:21:41.728Z,0.07
2022-08-25T11:22:42.754Z,0.3
2022-08-25T11:23:43.923Z,0.24
2022-08-25T11:24:44.782Z,0.2
2022-08-25T11:25:45.719Z,0.38
2022-08-25T11:26:46.810Z,0.58
2022-08-25T11:27:47.735Z,0.3
2022-08-25T11:28:48.748Z,0.29
2022-08-25T11:29:49.899Z,0.3
2022-08-25T11:30:50.806Z,0.42
2022-08-25T11:31:53.488Z,0.76
2022-08-25T11:32:52.742Z,0.65
2022-08-25T11:33:53.847Z,1.05
2022-08-25T11:34:54.772Z,1.16
2022-08-25T11:35:55.753Z,0.95
2022-08-25T11:36:56.739Z,0.88
2022-08-25T11:37:57.743Z,0.81
2022-08-25T11:38:58.817Z,1.09
2022-08-25T11:39:59.805Z,1.02
2022-08-25T11:41:00.776Z,1.29
2022-08-25T11:42:01.763Z,0.99
2022-08-25T11:43:02.778Z,0.9
2022-08-25T11:44:03.850Z,0.88
2022-08-25T11:45:04.774Z,1.01
2022-08-25T11:46:05.814Z,0.64
2022-08-25T11:47:06.788Z,0.37
2022-08-25T11:48:07.857Z,0.66
2022-08-25T11:49:08.936Z,0.38
2022-08-25T11:50:09.797Z,0.5
2022-08-25T11:51:10.813Z,0.21
2022-08-25T11:52:11.862Z,0.54
2022-08-25T11:53:12.750Z,0.59
2022-08-25T11:54:13.848Z,0.14
2022-08-25T11:55:14.782Z,0.29
2022-08-25T11:56:15.883Z,0
2022-08-25T11:57:16.788Z,0.81
2022-08-25T11:58:17.875Z,0.8
2022-08-25T11:59:18.821Z,0.26
2022-08-25T12:00:19.835Z,0.31
2022-08-25T12:01:20.798Z,0.68
2022-08-25T12:02:21.794Z,0.28
2022-08-25T12:03:22.831Z,0.85
2022-08-25T12:04:23.875Z,0.48
2022-08-25T12:05:24.894Z,0.52
2022-08-25T12:06:25.805Z,0.68
2022-08-25T12:07:26.974Z,1.4
2022-08-25T12:08:27.874Z,1.1
2022-08-25T12:09:28.840Z,0.7
2022-08-25T12:10:29.903Z,0.5
2022-08-25T12:11:30.923Z,0.27
2022-08-25T12:12:31.878Z,0.18
2022-08-25T12:13:32.909Z,0.42
2022-08-25T12:14:33.823Z,0.1
2022-08-25T12:15:34.821Z,0
2022-08-25T12:16:35.904Z,0.68
2022-08-25T12:17:36.873Z,0.42
2022-08-25T12:18:37.812Z,0.98
2022-08-25T12:19:38.888Z,0.95
2022-08-25T12:20:39.844Z,0.73
2022-08-25T12:21:40.940Z,0.43
2022-08-25T12:22:42.051Z,0.25
2022-08-25T12:23:43.033Z,0.84
2022-08-25T12:24:47.199Z,0.5
2022-08-25T12:25:44.827Z,0.56
2022-08-25T12:26:46.000Z,0.37
2022-08-25T12:27:46.897Z,0.36
2022-08-25T12:28:47.860Z,0.41
2022-08-25T12:29:48.839Z,0.18
2022-08-25T12:30:50.490Z,0.34
2022-08-25T12:31:50.849Z,1.1
2022-08-25T12:32:51.857Z,0.51
2022-08-25T12:33:52.863Z,0.31
2022-08-25T12:34:53.901Z,0.2
2022-08-25T12:35:55.955Z,0.46
2022-08-25T12:36:56.869Z,0.69
2022-08-25T12:37:57.867Z,0.51
2022-08-25T12:38:58.897Z,0.61
2022-08-25T12:40:00.051Z,0.45
2022-08-25T12:41:00.945Z,0.5
2022-08-25T12:43:02.942Z,0.55
2022-08-25T12:44:03.920Z,0.58
2022-08-25T12:45:05.142Z,0.38
2022-08-25T12:46:05.990Z,0.29
2022-08-25T12:47:11.043Z,0.23
2022-08-25T12:48:16.398Z,0.32
2022-08-25T12:49:25.389Z,0.38
2022-08-25T12:50:25.937Z,0.06
2022-08-25T12:51:26.920Z,0.46
2022-08-25T12:52:28.284Z,0.31
2022-08-25T12:53:28.942Z,0.69
2022-08-25T12:54:32.193Z,0.98
2022-08-25T12:55:36.141Z,0.41
2022-08-25T12:56:37.519Z,0.65
2022-08-25T12:57:37.931Z,0.04
2022-08-25T12:58:58.703Z,0.17
2022-08-25T12:59:39.943Z,0.04
2022-08-25T13:00:40.950Z,0.2
2022-08-25T13:01:42.004Z,0.15
2022-08-25T13:02:45.078Z,0.33
2022-08-25T13:04:44.990Z,0.37
2022-08-25T13:05:45.936Z,0.77
2022-08-25T13:06:46.906Z,0.37
2022-08-25T13:07:47.946Z,0.48
2022-08-25T13:08:48.894Z,0.32
2022-08-25T13:09:49.968Z,0.66
2022-08-25T13:10:50.954Z,0.48
2022-08-25T13:11:52.499Z,0.15
2022-08-25T13:12:52.927Z,0.47
2022-08-25T13:13:53.950Z,0.48
2022-08-25T13:14:54.942Z,0.42
2022-08-25T13:15:55.947Z,0.34
2022-08-25T13:16:57.032Z,0.34
2022-08-25T13:17:57.942Z,0.46
2022-08-25T13:18:58.955Z,0.4
2022-08-25T13:19:59.938Z,0.37
2022-08-25T13:21:00.991Z,0.76
2022-08-25T13:22:01.963Z,0.68
2022-08-25T13:23:03.911Z,1
2022-08-25T13:24:05.137Z,0.43
2022-08-25T13:25:05.050Z,0.22
2022-08-25T13:26:05.973Z,0.21
2022-08-25T13:27:06.949Z,0.23
2022-08-25T13:28:11.054Z,0.6
2022-08-25T13:29:09.398Z,0.67
2022-08-25T13:30:09.994Z,1.19
2022-08-25T13:31:11.003Z,0.57
2022-08-25T13:32:12.698Z,0.56
2022-08-25T13:33:13.010Z,0.54
2022-08-25T13:34:13.961Z,0.73
2022-08-25T13:35:15.018Z,1.13
2022-08-25T13:36:16.013Z,1
2022-08-25T13:37:16.980Z,0.92
2022-08-25T13:38:17.977Z,1.04
2022-08-25T13:39:22.348Z,0.57
2022-08-25T13:40:20.073Z,0.49
2022-08-25T13:41:20.960Z,0.35
2022-08-25T13:42:24.470Z,0.23
2022-08-25T13:43:27.540Z,0.22
2022-08-25T13:44:24.017Z,0.19
2022-08-25T13:45:25.009Z,0.71
2022-08-25T13:46:26.048Z,0.37
2022-08-25T13:47:27.033Z,0.47
2022-08-25T13:48:28.015Z,0.37
2022-08-25T13:49:29.000Z,0.64
2022-08-25T13:50:30.020Z,0.45
2022-08-25T13:51:31.790Z,0.44
2022-08-25T13:52:32.091Z,0.62
2022-08-25T13:53:33.131Z,0.63
2022-08-25T13:54:35.253Z,0.49
2022-08-25T13:55:38.083Z,0.48
2022-08-25T13:56:40.198Z,0.28
2022-08-25T13:57:37.034Z,0.42
2022-08-25T13:58:39.580Z,0.26
2022-08-25T13:59:40.318Z,0.25
2022-08-25T14:00:40.063Z,0.36
2022-08-25T14:01:47.639Z,0.49
2022-08-25T14:02:42.160Z,0.55
2022-08-25T14:03:45.671Z,0.44
2022-08-25T14:04:44.138Z,0.34
2022-08-25T14:05:45.037Z,0.62
2022-08-25T14:06:46.315Z,0.7
2022-08-25T14:07:52.449Z,0.55
2022-08-25T14:08:48.081Z,0.27
2022-08-25T14:09:49.064Z,0.37